La Crosse Municipal Airport
KLSE : now visible

Airfield :











YOU CAN JOIN US ON...

 
LOGIN :

Register | Disclaimer

   EN    FR    IT 

 









Legend :    VFR   Marginal VFR   IFR   Intensive IFR   Very Intensive IFR
Visi :
Ceiling :
>= 8 km
>= 3000ft
5 to 8 km
1000 to 3000 ft
1500m to 5 km
500 to 1000 ft
800 to 1500m
200 to 500 ft
< 800m
< 200 ft
Symbols :   Thunderstorms  Fog  Heavy snow  Heavy precipitations  Wind > 20 kt







- Airport Elevation : 655 ft
- IATA code : LSE


KLSE - La Crosse Municipal

CURRENT METAR :
  • 191953Z 31011KT 10SM CLR 17/M04 A2996 RMK AO2 SLP147 T01721044

EXPIRED METARs :
  • 191853Z 32011G17KT 10SM CLR 17/M03 A2997 RMK AO2 SLP150 T01671033
  • 191753Z 34010G18KT 10SM CLR 16/M03 A2999 RMK AO2 SLP158 T01611028 10161 20028 58007

TAF KLSE
Valid from the 19 at 18:00 until the 20 at 18:00 UTC


191733Z 1918/2018 35009KT P6SM SKC
FM200000 VRB03KT P6SM SKC
KZMP FIR / North America



MET'MAP, your aeronautical weather chart ! - Copyright ORBIFLY December 2007 - Disclaimer

ORBIFLY MET'MAP TEAM :

Programming & Development : Alexandra Zaïnal
Concept & Development : Baudouin d'Aumeries
Co-Development & Prog : Marc-Olivier Méhu
Technical & hardware support : Manuel Goepfert

Contact : metmap@orbifly.com




SOURCES & CREDITS :

   NOAA       Earth
Advisory